Time;durP1;ratioP1;P1;durP2;ratioP2;P2;SDS_P1;SDS_P2;PMS_P1;PMS_P2;Temp;Humidity;BMP_temperature;BMP_pressure;BME280_temperature;BME280_humidity;BME280_pressure;Samples;Min_cycle;Max_cycle;Signal;HPM_P1;HPM_P2
2023/05/29 00:01:25;;;;;;;;;16.00;15.25;;;;;18.16;60.92;100894.13;5034879;28;45431;-78
2023/05/29 00:03:51;;;;;;;;;16.00;15.75;;;;;18.15;61.10;100898.63;5034955;28;45384;-75
2023/05/29 00:06:17;;;;;;;;;15.75;15.75;;;;;18.10;61.17;100895.44;5037004;28;45308;-73
2023/05/29 00:08:43;;;;;;;;;11.25;11.25;;;;;18.11;61.68;100891.81;5037080;28;45331;-74
2023/05/29 00:11:08;;;;;;;;;14.50;14.50;;;;;18.07;61.50;100895.63;5037484;28;45677;-71
2023/05/29 00:13:33;;;;;;;;;12.25;12.25;;;;;18.03;61.70;100897.63;5037639;28;46190;-73
2023/05/29 00:16:00;;;;;;;;;13.00;13.00;;;;;18.02;61.46;100897.72;5037078;28;45280;-70
2023/05/29 00:18:26;;;;;;;;;13.50;13.50;;;;;17.98;61.54;100893.53;5038493;28;45256;-71
2023/05/29 00:20:52;;;;;;;;;14.25;14.00;;;;;17.93;61.82;100896.50;5037874;28;45376;-74
2023/05/29 00:23:18;;;;;;;;;14.00;14.00;;;;;17.92;62.33;100905.44;5037313;28;46043;-74
2023/05/29 00:25:43;;;;;;;;;15.00;15.00;;;;;17.85;62.12;100889.00;5039034;28;45491;-73
2023/05/29 00:28:09;;;;;;;;;0.75;0.75;;;;;17.82;62.16;100897.19;5038190;28;45474;-76
2023/05/29 00:30:34;;;;;;;;;11.75;11.75;;;;;17.75;62.27;100890.56;5040390;28;45441;-76
2023/05/29 00:33:00;;;;;;;;;13.25;13.25;;;;;17.70;62.46;100901.53;5039581;28;45593;-77
2023/05/29 00:35:25;;;;;;;;;10.50;10.50;;;;;17.67;63.12;100899.91;5036733;28;45421;-78
2023/05/29 00:37:50;;;;;;;;;15.00;15.00;;;;;17.65;62.33;100901.81;5036265;28;45467;-76
2023/05/29 00:40:16;;;;;;;;;8.50;8.50;;;;;17.60;62.39;100898.59;5034522;28;46093;-78
2023/05/29 00:42:41;;;;;;;;;13.25;12.25;;;;;17.58;62.69;100891.69;5036140;28;45728;-75
2023/05/29 00:45:09;;;;;;;;;11.75;11.75;;;;;17.55;63.06;100897.22;5035874;28;45378;-77
2023/05/29 00:47:34;;;;;;;;;13.25;13.25;;;;;17.50;62.92;100900.16;5036607;28;45230;-78
2023/05/29 00:50:01;;;;;;;;;13.50;13.00;;;;;17.49;63.23;100895.78;5037745;28;45209;-76
2023/05/29 00:52:27;;;;;;;;;13.75;13.75;;;;;17.46;63.00;100893.34;5036986;28;45383;-76
2023/05/29 00:54:52;;;;;;;;;13.25;13.00;;;;;17.36;63.32;100877.09;5036009;28;45308;-70
2023/05/29 00:57:18;;;;;;;;;14.50;14.50;;;;;17.37;63.32;100895.63;5035979;28;45451;-74
2023/05/29 00:59:46;;;;;;;;;14.00;13.00;;;;;17.33;63.56;100890.59;5034812;28;45689;-75
2023/05/29 01:02:12;;;;;;;;;13.75;13.75;;;;;17.30;63.68;100889.00;5033979;28;48113;-79
2023/05/29 01:04:38;;;;;;;;;13.25;12.50;;;;;17.26;64.07;100883.97;5035728;28;45289;-79
2023/05/29 01:07:03;;;;;;;;;12.75;12.75;;;;;17.25;64.04;100887.56;5036018;28;45339;-76
2023/05/29 01:09:30;;;;;;;;;14.00;12.50;;;;;17.23;63.63;100885.03;5035648;28;45204;-78
2023/05/29 01:12:18;;;;;;;;;16.00;15.75;;;;;17.17;64.02;100880.94;5051370;28;46373;-78
2023/05/29 01:15:10;;;;;;;;;12.50;12.50;;;;;17.15;64.03;100876.69;5027205;28;45384;-72
2023/05/29 01:17:57;;;;;;;;;12.50;12.50;;;;;17.14;64.31;100875.81;5035376;28;45354;-73
2023/05/29 01:20:41;;;;;;;;;15.00;14.00;;;;;17.03;64.62;100868.53;5035507;28;45274;-77
2023/05/29 01:23:48;;;;;;;;;15.00;13.50;;;;;17.08;64.60;100877.06;5035140;28;45994;-77
2023/05/29 01:26:25;;;;;;;;;16.25;16.25;;;;;17.05;64.44;100889.69;5024371;28;45411;-76
2023/05/29 01:28:54;;;;;;;;;14.75;14.75;;;;;17.00;65.01;100868.72;5035642;28;45347;-76
2023/05/29 01:31:23;;;;;;;;;12.00;11.00;;;;;16.93;65.23;100872.66;5035385;28;45339;-74
2023/05/29 01:33:53;;;;;;;;;15.00;15.00;;;;;16.92;65.65;100878.94;5035092;28;45684;-78
2023/05/29 01:36:18;;;;;;;;;11.00;11.00;;;;;16.88;65.50;100885.38;5050395;28;45373;-78
2023/05/29 01:38:44;;;;;;;;;14.25;14.25;;;;;16.84;65.20;100881.22;5035202;28;45443;-78
2023/05/29 01:41:10;;;;;;;;;13.25;12.50;;;;;16.83;65.66;100882.16;5035384;28;45412;-77
2023/05/29 01:43:37;;;;;;;;;13.75;12.50;;;;;16.72;65.78;100873.06;5035205;28;45629;-78
2023/05/29 01:46:02;;;;;;;;;13.25;13.25;;;;;16.68;65.63;100876.00;5050533;28;45361;-75
2023/05/29 01:48:28;;;;;;;;;11.25;11.25;;;;;16.65;66.14;100869.06;5034161;28;45414;-77
2023/05/29 01:50:55;;;;;;;;;12.50;12.50;;;;;16.67;66.72;100882.25;5035065;28;45384;-78
2023/05/29 01:53:20;;;;;;;;;12.25;11.75;;;;;16.65;66.32;100885.00;5035086;28;45531;-78
2023/05/29 01:55:46;;;;;;;;;12.00;12.00;;;;;16.62;66.97;100887.84;5034830;28;45308;-78
2023/05/29 01:58:14;;;;;;;;;13.50;13.50;;;;;16.53;67.04;100875.13;5035079;28;45401;-79
2023/05/29 02:00:40;;;;;;;;;14.50;14.50;;;;;16.52;67.40;100884.03;5033639;28;45619;-78
2023/05/29 02:03:05;;;;;;;;;11.75;11.75;;;;;16.46;67.28;100875.50;5035255;28;46414;-78
2023/05/29 02:05:30;;;;;;;;;11.50;11.50;;;;;16.44;67.54;100871.25;5034467;28;55488;-75
2023/05/29 02:07:56;;;;;;;;;13.00;13.00;;;;;16.45;67.89;100884.41;5034676;28;45198;-78
2023/05/29 02:10:21;;;;;;;;;9.00;9.00;;;;;16.24;67.81;100854.69;5034969;28;45411;-77
2023/05/29 02:12:46;;;;;;;;;14.50;14.50;;;;;16.36;67.75;100869.03;5034382;28;46705;-77
2023/05/29 02:15:12;;;;;;;;;11.00;11.00;;;;;16.34;68.40;100879.72;5034518;28;45528;-79
2023/05/29 02:17:37;;;;;;;;;13.50;13.50;;;;;16.20;68.68;100864.66;5035020;28;45459;-78
2023/05/29 02:20:04;;;;;;;;;13.25;13.25;;;;;16.24;68.70;100869.78;5034260;28;46886;-77
2023/05/29 02:22:29;;;;;;;;;14.00;14.00;;;;;16.20;68.49;100867.31;5034673;28;45627;-77
2023/05/29 02:24:55;;;;;;;;;12.00;12.00;;;;;16.16;69.40;100870.22;5034267;28;45322;-78
2023/05/29 02:27:20;;;;;;;;;10.50;10.50;;;;;15.97;69.50;100859.84;5034794;28;45761;-79
2023/05/29 02:29:46;;;;;;;;;12.00;12.00;;;;;16.01;69.78;100880.78;5034852;28;45264;-79
2023/05/29 02:32:11;;;;;;;;;11.75;11.75;;;;;15.99;69.28;100864.09;5034413;28;45611;-80
2023/05/29 02:34:36;;;;;;;;;12.50;12.50;;;;;16.02;69.67;100885.16;5034744;28;45367;-77
2023/05/29 02:37:02;;;;;;;;;11.00;11.00;;;;;15.97;69.66;100879.25;5035674;28;45384;-78
2023/05/29 02:39:28;;;;;;;;;13.25;12.75;;;;;15.98;69.14;100880.97;5036941;28;45246;-79
2023/05/29 02:41:54;;;;;;;;;14.50;14.00;;;;;15.91;70.20;100879.63;5035516;28;45790;-76
2023/05/29 02:44:20;;;;;;;;;17.00;17.00;;;;;15.96;70.13;100887.31;5034559;28;45425;-76
2023/05/29 02:46:45;;;;;;;;;13.50;13.50;;;;;15.84;70.55;100878.22;5034325;28;45355;-72
2023/05/29 02:49:10;;;;;;;;;12.50;12.50;;;;;15.80;71.05;100880.19;5034647;28;45533;-71
2023/05/29 02:51:37;;;;;;;;;11.75;11.75;;;;;15.80;71.43;100887.31;5034716;28;45619;-75
2023/05/29 02:54:02;;;;;;;;;10.00;10.00;;;;;15.74;71.41;100888.50;5049722;28;45395;-79
2023/05/29 02:56:28;;;;;;;;;13.00;13.00;;;;;15.71;71.61;100886.03;5033959;28;45507;-74
2023/05/29 02:58:53;;;;;;;;;12.00;12.00;;;;;15.73;71.36;100892.09;5035168;28;45436;-75
2023/05/29 03:01:19;;;;;;;;;12.00;12.00;;;;;15.67;72.46;100881.84;5035873;28;48546;-79
2023/05/29 03:03:44;;;;;;;;;10.75;10.75;;;;;15.63;72.58;100897.94;5037759;28;45438;-77
2023/05/29 03:06:10;;;;;;;;;13.25;13.25;;;;;15.61;73.04;100899.81;5038036;28;45382;-79
2023/05/29 03:08:39;;;;;;;;;11.00;10.50;;;;;15.57;72.89;100895.63;5038393;28;45585;-75
2023/05/29 03:11:05;;;;;;;;;12.75;12.75;;;;;15.55;73.21;100904.63;5037823;28;46102;-77
2023/05/29 03:13:30;;;;;;;;;12.25;12.25;;;;;15.48;74.07;100899.66;5037806;28;45449;-77
2023/05/29 03:15:56;;;;;;;;;8.50;8.50;;;;;15.40;73.86;100895.72;5037738;28;45607;-71
2023/05/29 03:18:22;;;;;;;;;14.25;14.25;;;;;15.38;74.65;100902.91;5039317;28;45756;-74
2023/05/29 03:20:47;;;;;;;;;12.75;12.75;;;;;15.32;74.85;100904.06;5038548;28;46730;-76
2023/05/29 03:23:13;;;;;;;;;13.00;13.00;;;;;15.27;74.99;100895.53;5037651;28;45406;-73
2023/05/29 03:25:38;;;;;;;;;15.75;14.25;;;;;15.24;75.34;100901.00;5037805;28;45377;-78
2023/05/29 03:28:03;;;;;;;;;12.00;12.00;;;;;15.13;74.83;100891.00;5037828;28;45537;-79
2023/05/29 03:30:29;;;;;;;;;15.25;15.25;;;;;15.21;75.78;100907.31;5037340;28;45591;-81
2023/05/29 03:32:54;;;;;;;;;13.50;13.50;;;;;15.16;75.67;100909.38;5037070;28;50602;-80
2023/05/29 03:35:19;;;;;;;;;15.25;15.25;;;;;15.14;75.96;100925.34;5037540;28;45338;-79
2023/05/29 03:37:45;;;;;;;;;11.75;11.75;;;;;15.11;75.76;100917.56;5053282;28;45390;-77
2023/05/29 03:40:11;;;;;;;;;12.75;12.75;;;;;14.97;76.31;100899.78;5040205;28;46110;-79
2023/05/29 03:42:36;;;;;;;;;14.00;12.25;;;;;15.06;77.45;100910.81;5036734;28;45435;-77
2023/05/29 03:45:02;;;;;;;;;14.25;14.25;;;;;15.10;77.24;100929.09;5036235;28;45313;-77
2023/05/29 03:47:27;;;;;;;;;15.25;15.25;;;;;15.08;77.13;100919.53;5036277;28;45347;-77
2023/05/29 03:49:53;;;;;;;;;11.50;11.50;;;;;14.98;78.55;100927.97;5037205;28;45378;-79
2023/05/29 03:52:18;;;;;;;;;17.00;16.00;;;;;14.93;78.36;100927.38;5035864;28;45244;-78
2023/05/29 03:54:44;;;;;;;;;14.75;14.75;;;;;14.86;78.49;100918.88;5037562;28;45229;-78
2023/05/29 03:57:10;;;;;;;;;14.00;12.75;;;;;14.87;79.06;100925.88;5037654;28;45321;-75
2023/05/29 03:59:36;;;;;;;;;13.00;13.00;;;;;14.85;80.15;100935.69;5036820;28;46023;-76
2023/05/29 04:02:02;;;;;;;;;12.50;12.50;;;;;14.83;79.81;100931.41;5036568;28;45375;-75
2023/05/29 04:04:27;;;;;;;;;15.25;14.75;;;;;14.79;79.53;100936.03;5036630;28;45356;-78
2023/05/29 04:06:53;;;;;;;;;17.25;17.25;;;;;14.77;79.51;100932.59;5037031;28;45502;-78
2023/05/29 04:09:18;;;;;;;;;14.25;14.25;;;;;14.74;79.20;100932.75;5036049;28;53266;-78
2023/05/29 04:11:44;;;;;;;;;18.00;17.00;;;;;14.74;79.57;100938.06;5036085;28;45308;-76
2023/05/29 04:14:10;;;;;;;;;14.00;14.00;;;;;14.73;79.49;100944.28;5036528;28;45366;-74
2023/05/29 04:16:35;;;;;;;;;15.00;15.00;;;;;14.74;79.59;100948.66;5036370;28;45303;-73
2023/05/29 04:19:00;;;;;;;;;15.25;15.25;;;;;14.79;79.32;100959.84;5036204;28;45567;-72
2023/05/29 04:21:26;;;;;;;;;13.25;13.25;;;;;14.72;79.20;100961.94;5036321;28;45530;-76
2023/05/29 04:23:52;;;;;;;;;14.00;14.00;;;;;14.74;80.43;100956.59;5037183;28;45422;-74
2023/05/29 04:26:17;;;;;;;;;15.75;15.25;;;;;14.79;80.07;100965.16;5038427;28;45318;-78
2023/05/29 04:28:43;;;;;;;;;16.00;15.75;;;;;14.76;80.21;100962.66;5038851;28;45347;-79
2023/05/29 04:31:13;;;;;;;;;14.25;14.25;;;;;14.77;79.85;100964.38;5037061;28;45403;-76
2023/05/29 04:33:39;;;;;;;;;12.50;12.25;;;;;14.80;79.40;100968.66;5037420;28;45324;-77
2023/05/29 04:36:05;;;;;;;;;14.25;14.25;;;;;14.84;80.27;100978.16;5036623;28;45316;-78
2023/05/29 04:38:31;;;;;;;;;16.00;15.25;;;;;14.83;79.63;100968.47;5035953;28;45567;-71
2023/05/29 04:40:58;;;;;;;;;14.75;14.75;;;;;14.84;80.09;100978.16;5035859;28;45399;-72
2023/05/29 04:43:26;;;;;;;;;13.50;13.50;;;;;14.83;80.37;100979.06;5035922;28;45230;-73
2023/05/29 04:45:52;;;;;;;;;16.75;16.50;;;;;14.78;79.54;100975.81;5036685;28;45335;-72
2023/05/29 04:48:17;;;;;;;;;15.75;15.75;;;;;14.81;79.84;100994.19;5036517;28;46176;-75
2023/05/29 04:50:44;;;;;;;;;17.50;17.50;;;;;14.69;80.23;100970.03;5036270;28;45330;-77
2023/05/29 04:53:10;;;;;;;;;18.25;18.00;;;;;14.88;80.99;100990.31;5036091;28;45417;-76
2023/05/29 04:55:35;;;;;;;;;18.00;16.00;;;;;14.88;80.18;100991.16;5051402;28;45285;-75
2023/05/29 04:58:01;;;;;;;;;16.25;16.25;;;;;14.93;80.53;100990.06;5035726;28;45375;-73
2023/05/29 05:00:26;;;;;;;;;13.50;13.50;;;;;14.93;80.34;100998.00;5035697;28;45316;-72
2023/05/29 05:02:52;;;;;;;;;18.25;17.25;;;;;14.97;79.86;100994.25;5035893;28;45460;-75
2023/05/29 05:05:17;;;;;;;;;18.25;16.00;;;;;15.06;79.83;100996.44;5034824;28;45490;-77
2023/05/29 05:07:42;;;;;;;;;17.50;17.50;;;;;15.12;79.34;100992.63;5035546;28;46029;-77
2023/05/29 05:10:08;;;;;;;;;15.75;15.75;;;;;15.22;79.08;101004.44;5035430;28;45348;-76
2023/05/29 05:12:33;;;;;;;;;14.75;14.75;;;;;15.26;79.83;100992.75;5035649;28;45319;-78
2023/05/29 05:14:59;;;;;;;;;18.00;18.00;;;;;15.34;78.95;100998.47;5035739;28;45253;-74
2023/05/29 05:17:24;;;;;;;;;14.00;14.00;;;;;15.39;79.30;100990.28;5034981;28;49796;-77
2023/05/29 05:19:52;;;;;;;;;19.50;18.50;;;;;15.43;78.35;100997.16;5035164;28;45331;-75
2023/05/29 05:22:17;;;;;;;;;16.75;16.75;;;;;15.51;77.97;101006.47;5033027;28;45328;-76
2023/05/29 05:24:42;;;;;;;;;14.00;12.75;;;;;15.62;77.37;101015.53;5034211;28;45316;-76
2023/05/29 05:27:08;;;;;;;;;18.25;18.25;;;;;15.72;76.73;101012.38;5035302;28;45341;-74
2023/05/29 05:29:33;;;;;;;;;17.75;17.75;;;;;15.83;76.12;101011.81;5033542;28;48078;-77
2023/05/29 05:31:58;;;;;;;;;19.25;19.25;;;;;15.76;75.81;100995.34;5034854;28;47927;-73
2023/05/29 05:34:23;;;;;;;;;14.75;14.75;;;;;15.94;75.73;101005.94;5035239;28;45524;-74
2023/05/29 05:36:49;;;;;;;;;17.00;17.00;;;;;15.99;75.12;101018.00;5034792;28;49736;-75
2023/05/29 05:39:14;;;;;;;;;18.00;17.50;;;;;16.03;74.87;101010.72;5034980;28;45391;-78
2023/05/29 05:41:40;;;;;;;;;17.00;17.00;;;;;16.08;74.67;101015.75;5033252;28;45369;-78
2023/05/29 05:44:05;;;;;;;;;17.50;17.50;;;;;16.13;74.65;101011.03;5034811;28;55112;-76
2023/05/29 05:46:30;;;;;;;;;17.25;17.25;;;;;16.24;74.12;101024.56;5034748;28;45810;-80
2023/05/29 05:49:00;;;;;;;;;18.50;18.50;;;;;16.20;73.86;101018.59;5034813;28;45407;-75
2023/05/29 05:51:26;;;;;;;;;19.25;19.25;;;;;16.21;73.67;101020.28;5035156;28;45236;-78
2023/05/29 05:53:52;;;;;;;;;18.50;18.50;;;;;16.28;73.62;101027.91;5035214;28;45552;-74
2023/05/29 05:56:17;;;;;;;;;16.00;16.00;;;;;16.26;73.13;101017.38;5035120;28;46514;-76
2023/05/29 05:58:42;;;;;;;;;18.25;18.25;;;;;16.28;72.95;101022.59;5035783;28;45430;-78
2023/05/29 06:01:08;;;;;;;;;16.50;16.50;;;;;16.32;72.60;101034.75;5034883;28;45410;-76
2023/05/29 06:03:34;;;;;;;;;18.50;18.50;;;;;16.29;72.75;101037.56;5035513;28;45377;-78
2023/05/29 06:05:59;;;;;;;;;16.50;16.50;;;;;16.17;72.86;101028.50;5034930;28;46373;-76
2023/05/29 06:08:25;;;;;;;;;18.75;18.75;;;;;16.15;73.12;101033.91;5034825;28;45322;-80
2023/05/29 06:10:50;;;;;;;;;21.75;20.00;;;;;16.11;73.13;101040.34;5036264;28;45313;-78
2023/05/29 06:13:16;;;;;;;;;18.00;18.00;;;;;16.06;73.19;101053.00;5041668;28;45657;-75
2023/05/29 06:15:43;;;;;;;;;21.00;20.75;;;;;16.03;73.45;101053.19;5050238;28;45627;-77
2023/05/29 06:18:08;;;;;;;;;19.75;19.75;;;;;16.03;73.45;101053.19;5036879;28;45481;-78
2023/05/29 06:20:33;;;;;;;;;20.00;20.00;;;;;16.01;73.66;101041.81;5033627;28;45290;-78
2023/05/29 06:22:59;;;;;;;;;18.50;18.50;;;;;16.00;73.72;101046.22;5035412;28;45245;-75
2023/05/29 06:25:32;;;;;;;;;20.00;20.00;;;;;16.01;73.32;101055.06;5035539;28;53352;-75
2023/05/29 06:27:59;;;;;;;;;18.00;17.00;;;;;15.99;73.50;101057.78;5038532;28;45277;-72
2023/05/29 06:30:25;;;;;;;;;18.75;18.75;;;;;16.03;73.19;101061.16;5050981;28;45286;-76
2023/05/29 06:32:50;;;;;;;;;15.00;15.00;;;;;16.09;73.12;101065.22;5035381;28;45543;-79
2023/05/29 06:35:15;;;;;;;;;19.75;19.75;;;;;16.09;73.14;101068.75;5037266;28;46292;-76
2023/05/29 06:37:41;;;;;;;;;19.75;19.75;;;;;16.10;73.21;101070.47;5037849;28;50278;-76
2023/05/29 06:40:06;;;;;;;;;17.75;17.75;;;;;16.15;73.11;101065.75;5038170;28;45412;-73
2023/05/29 06:42:32;;;;;;;;;18.25;18.25;;;;;16.18;72.70;101072.69;5038163;28;45494;-77
2023/05/29 06:44:57;;;;;;;;;15.75;15.75;;;;;16.16;72.61;101069.25;5037283;28;60500;-76
2023/05/29 06:47:23;;;;;;;;;16.75;16.00;;;;;16.14;72.76;101065.84;5038404;28;45502;-77
2023/05/29 06:49:48;;;;;;;;;22.00;19.00;;;;;16.17;72.67;101074.50;5037848;28;45318;-73
2023/05/29 06:52:13;;;;;;;;;22.50;21.75;;;;;16.24;72.66;101076.81;5039344;28;45599;-75
2023/05/29 06:54:39;;;;;;;;;18.75;18.50;;;;;16.30;71.95;101069.34;5039029;28;45468;-76
2023/05/29 06:57:04;;;;;;;;;22.00;21.50;;;;;16.37;72.43;101072.50;5038142;28;45822;-70
2023/05/29 06:59:29;;;;;;;;;14.00;13.25;;;;;16.45;72.36;101078.22;5038509;28;45265;-70
2023/05/29 07:01:55;;;;;;;;;22.00;22.00;;;;;16.46;71.83;101079.94;5038576;28;45806;-71
2023/05/29 07:04:21;;;;;;;;;20.75;20.75;;;;;16.40;71.50;101069.69;5037920;28;45563;-73
2023/05/29 07:06:46;;;;;;;;;19.50;18.75;;;;;16.52;71.60;101077.88;5037600;28;45365;-77
2023/05/29 07:09:11;;;;;;;;;18.75;18.25;;;;;16.53;71.21;101077.81;5037521;28;45308;-75
2023/05/29 07:11:38;;;;;;;;;19.75;19.75;;;;;16.55;71.07;101081.22;5037577;28;45638;-72
2023/05/29 07:14:03;;;;;;;;;20.25;20.25;;;;;16.62;71.19;101079.06;5037549;28;46751;-75
2023/05/29 07:16:29;;;;;;;;;18.25;18.25;;;;;16.66;70.52;101072.63;5037347;28;45262;-73
2023/05/29 07:18:54;;;;;;;;;17.50;17.50;;;;;16.71;70.06;101080.34;5053498;28;45266;-73
2023/05/29 07:21:20;;;;;;;;;17.25;16.75;;;;;16.69;70.42;101075.09;5038336;28;45323;-75
2023/05/29 07:23:45;;;;;;;;;16.00;16.00;;;;;16.74;70.41;101074.84;5035862;28;46679;-77
2023/05/29 07:26:10;;;;;;;;;20.00;20.00;;;;;16.78;69.96;101079.88;5037579;28;45410;-78
2023/05/29 07:28:36;;;;;;;;;17.75;17.75;;;;;16.88;69.54;101092.63;5038190;28;45299;-75
2023/05/29 07:31:01;;;;;;;;;20.25;20.25;;;;;16.88;69.39;101088.19;5037896;28;45698;-77
2023/05/29 07:33:26;;;;;;;;;18.25;18.25;;;;;16.93;69.27;101087.88;5037678;28;45411;-71
2023/05/29 07:35:52;;;;;;;;;20.25;19.25;;;;;16.96;69.12;101086.88;5037758;28;45285;-75
2023/05/29 07:38:17;;;;;;;;;16.00;16.00;;;;;17.05;68.82;101096.97;5037842;28;45522;-77
2023/05/29 07:40:43;;;;;;;;;20.25;20.25;;;;;17.04;69.16;101081.97;5037929;28;45355;-76
2023/05/29 07:43:08;;;;;;;;;19.25;19.25;;;;;17.11;68.53;101093.97;5037560;28;45371;-79
2023/05/29 07:45:33;;;;;;;;;16.25;16.25;;;;;17.11;68.65;101083.31;5052011;28;45362;-79
2023/05/29 07:47:58;;;;;;;;;20.25;19.50;;;;;17.19;68.17;101091.69;5037345;28;45331;-74
2023/05/29 07:50:24;;;;;;;;;18.00;18.00;;;;;17.26;68.02;101091.31;5037703;28;45890;-71
2023/05/29 07:52:50;;;;;;;;;17.75;17.75;;;;;17.31;67.60;101092.78;5037946;28;46181;-77
2023/05/29 07:55:15;;;;;;;;;19.25;19.25;;;;;17.33;67.71;101082.03;5038729;28;45454;-74
2023/05/29 07:57:41;;;;;;;;;19.50;19.50;;;;;17.51;67.43;101090.69;5037447;28;45323;-75
2023/05/29 08:00:07;;;;;;;;;17.50;17.50;;;;;17.60;66.86;101094.59;5037730;28;45221;-76
2023/05/29 08:02:33;;;;;;;;;17.50;17.50;;;;;17.64;66.19;101088.16;5038193;28;46335;-71
2023/05/29 08:04:58;;;;;;;;;19.25;19.25;;;;;17.52;66.37;101055.16;5037135;28;45465;-70
2023/05/29 08:07:23;;;;;;;;;21.25;21.25;;;;;17.77;66.17;101075.78;5037962;28;54081;-73
2023/05/29 08:09:49;;;;;;;;;21.25;20.00;;;;;17.86;66.14;101076.16;5037919;28;45646;-71
2023/05/29 08:12:14;;;;;;;;;21.50;21.50;;;;;17.95;65.15;101087.06;5036595;28;46144;-75
2023/05/29 08:14:40;;;;;;;;;19.50;19.50;;;;;18.00;65.37;101088.56;5035593;28;45334;-74
2023/05/29 08:17:06;;;;;;;;;20.00;20.00;;;;;18.05;65.01;101089.19;5037170;28;45375;-76
2023/05/29 08:19:31;;;;;;;;;20.00;20.00;;;;;18.12;64.34;101094.97;5037412;28;45285;-75
2023/05/29 08:21:56;;;;;;;;;17.50;17.50;;;;;18.17;63.87;101101.72;5037769;28;45302;-79
2023/05/29 08:24:22;;;;;;;;;16.25;16.25;;;;;18.12;64.25;101079.84;5037234;28;45294;-77
2023/05/29 08:26:47;;;;;;;;;14.75;14.75;;;;;18.25;64.06;101094.09;5035429;28;50161;-76
2023/05/29 08:29:12;;;;;;;;;17.50;17.50;;;;;18.32;63.62;101091.03;5036637;28;45510;-77
2023/05/29 08:31:38;;;;;;;;;19.25;19.25;;;;;18.39;63.85;101101.16;5035404;28;48284;-80
2023/05/29 08:34:03;;;;;;;;;20.25;20.25;;;;;18.43;63.65;101098.28;5036801;28;45353;-78
2023/05/29 08:36:28;;;;;;;;;19.25;19.00;;;;;18.39;63.07;101090.50;5036981;28;45370;-74
2023/05/29 08:38:54;;;;;;;;;21.00;21.00;;;;;18.42;63.13;101097.47;5037105;28;45581;-77
2023/05/29 08:41:38;;;;;;;;;19.50;19.50;;;;;18.50;63.26;101107.59;5036465;28;46406;-77
2023/05/29 08:44:05;;;;;;;;;21.25;21.25;;;;;18.50;62.70;101097.81;5036482;28;45289;-75
2023/05/29 08:46:32;;;;;;;;;21.00;21.00;;;;;18.59;62.41;101107.03;5035321;28;45470;-73
2023/05/29 08:48:58;;;;;;;;;21.50;21.50;;;;;18.66;62.48;101100.34;5036005;28;45205;-79
2023/05/29 08:51:31;;;;;;;;;21.50;21.50;;;;;18.71;61.85;101105.34;5035846;28;46238;-77
2023/05/29 08:53:56;;;;;;;;;13.75;13.75;;;;;18.78;61.79;101106.63;5036653;28;45374;-80
2023/05/29 08:56:22;;;;;;;;;21.00;20.50;;;;;18.69;61.71;101083.28;5035897;28;45316;-77
2023/05/29 08:58:48;;;;;;;;;22.75;22.75;;;;;18.75;61.46;101085.53;5035962;28;45216;-76
2023/05/29 09:01:14;;;;;;;;;21.00;20.00;;;;;18.84;61.55;101094.72;5035849;28;46101;-78
2023/05/29 09:03:41;;;;;;;;;20.75;20.75;;;;;18.91;61.17;101093.34;5034380;28;45263;-78
2023/05/29 09:06:08;;;;;;;;;19.00;19.00;;;;;19.01;60.59;101106.94;5035215;28;45782;-77
2023/05/29 09:08:34;;;;;;;;;19.75;19.75;;;;;19.04;60.45;101098.72;5035722;28;45557;-77
2023/05/29 09:11:00;;;;;;;;;22.00;22.00;;;;;19.01;60.28;101090.94;5036175;28;45647;-78
2023/05/29 09:13:25;;;;;;;;;21.50;19.75;;;;;19.02;60.46;101091.81;5035619;28;45304;-80
2023/05/29 09:15:59;;;;;;;;;21.25;21.25;;;;;19.16;60.29;101104.22;5036180;28;45395;-79
2023/05/29 09:18:29;;;;;;;;;19.25;19.25;;;;;19.23;60.28;101110.81;5034423;28;45373;-77
2023/05/29 09:20:55;;;;;;;;;22.75;22.75;;;;;19.31;59.93;101111.16;5035529;28;46234;-77
2023/05/29 09:23:20;;;;;;;;;20.50;20.50;;;;;19.36;59.98;101110.81;5033810;28;45297;-78
2023/05/29 09:25:52;;;;;;;;;21.25;21.25;;;;;19.46;59.33;101114.56;5035333;28;45324;-77
2023/05/29 09:28:18;;;;;;;;;22.00;22.00;;;;;19.48;59.57;101114.47;5034315;28;45253;-80
2023/05/29 09:30:46;;;;;;;;;25.25;25.25;;;;;19.50;58.83;101102.72;5034767;28;45248;-79
2023/05/29 09:33:14;;;;;;;;;25.00;25.00;;;;;19.61;58.91;101107.31;5035645;28;45276;-78
2023/05/29 09:35:42;;;;;;;;;26.00;25.75;;;;;19.72;58.97;101111.91;5039017;28;45280;-78
2023/05/29 09:38:09;;;;;;;;;21.25;21.25;;;;;19.78;58.44;101114.13;5035264;28;45381;-80
2023/05/29 09:40:37;;;;;;;;;28.50;27.50;;;;;19.79;58.65;101106.97;5033199;28;46250;-74
2023/05/29 09:43:10;;;;;;;;;19.25;19.25;;;;;19.82;58.59;101106.75;5034760;28;45543;-70
2023/05/29 09:45:40;;;;;;;;;22.25;22.25;;;;;19.88;58.63;101103.63;5037696;28;45318;-78
2023/05/29 09:48:07;;;;;;;;;23.50;23.50;;;;;20.02;58.27;101101.81;5038509;28;45341;-79
2023/05/29 09:50:34;;;;;;;;;25.25;25.25;;;;;20.12;57.97;101095.72;5035741;28;45351;-79
2023/05/29 09:53:01;;;;;;;;;28.00;28.00;;;;;20.20;57.87;101097.84;5035895;28;45340;-78
2023/05/29 09:55:28;;;;;;;;;23.00;23.00;;;;;20.25;57.67;101101.03;5036238;28;45220;-79
2023/05/29 09:57:54;;;;;;;;;22.75;22.75;;;;;20.35;56.89;101097.69;5035997;28;45640;-76
2023/05/29 10:00:20;;;;;;;;;25.75;25.75;;;;;20.40;57.06;101108.88;5034362;28;47472;-74
2023/05/29 10:02:45;;;;;;;;;24.50;24.50;;;;;20.34;56.66;101099.50;5036342;28;45406;-75
2023/05/29 10:05:12;;;;;;;;;32.75;31.00;;;;;20.33;56.67;101104.97;5036171;28;45408;-81
2023/05/29 10:07:43;;;;;;;;;35.25;32.25;;;;;20.38;56.91;101108.97;5034781;28;45535;-78
2023/05/29 10:10:11;;;;;;;;;46.00;39.00;;;;;20.40;56.56;101103.53;5033940;28;48535;-76
2023/05/29 10:12:39;;;;;;;;;30.25;29.50;;;;;20.44;56.51;101094.34;5036394;28;45368;-78
2023/05/29 10:15:15;;;;;;;;;21.50;21.50;;;;;20.49;56.24;101094.84;5035976;28;45690;-70
2023/05/29 10:17:51;;;;;;;;;30.00;29.00;;;;;20.53;56.28;101088.31;5036483;28;45272;-78
2023/05/29 10:20:17;;;;;;;;;27.50;27.50;;;;;20.60;56.22;101095.84;5035800;28;47012;-79
2023/05/29 10:22:47;;;;;;;;;35.00;32.00;;;;;20.58;55.67;101086.13;5037097;28;45351;-79
2023/05/29 10:25:15;;;;;;;;;31.75;30.00;;;;;20.66;55.70;101092.72;5053975;28;45447;-74
2023/05/29 10:27:41;;;;;;;;;29.25;28.75;;;;;20.75;55.87;101086.69;5036682;28;45332;-75
2023/05/29 10:30:27;;;;;;;;;26.50;26.50;;;;;20.83;55.64;101084.31;5037072;28;45344;-70
2023/05/29 10:33:05;;;;;;;;;27.50;27.50;;;;;20.93;55.84;101083.63;5042350;28;45465;-76
2023/05/29 10:36:12;;;;;;;;;30.25;29.50;;;;;20.97;55.08;101077.94;5037786;28;45323;-76
2023/05/29 10:38:38;;;;;;;;;27.00;26.50;;;;;20.97;55.01;101079.72;5035982;28;45808;-72
2023/05/29 10:41:28;;;;;;;;;25.75;25.25;;;;;21.07;54.50;101091.44;5036821;28;45434;-75
2023/05/29 10:44:01;;;;;;;;;38.00;34.00;;;;;21.02;54.79;101067.72;5034512;28;45448;-74
2023/05/29 10:46:44;;;;;;;;;29.50;28.50;;;;;21.17;54.38;101084.41;5036663;28;45393;-75
2023/05/29 10:49:20;;;;;;;;;26.00;26.00;;;;;21.11;54.72;101063.47;5034675;28;45289;-76
2023/05/29 10:51:48;;;;;;;;;28.75;28.50;;;;;21.26;54.47;101079.34;5036564;28;45519;-76
2023/05/29 10:54:14;;;;;;;;;30.00;29.25;;;;;21.28;54.08;101082.75;5038020;28;45386;-73
2023/05/29 10:56:41;;;;;;;;;28.00;28.00;;;;;21.23;54.33;101069.72;5037523;28;45315;-77
2023/05/29 10:59:07;;;;;;;;;27.25;26.75;;;;;21.25;54.33;101058.91;5036498;28;45414;-75
2023/05/29 11:01:33;;;;;;;;;32.50;30.75;;;;;21.46;54.40;101080.44;5036062;28;45571;-76
2023/05/29 11:04:17;;;;;;;;;24.25;24.25;;;;;21.51;54.09;101082.75;5034376;28;45378;-75
2023/05/29 11:06:42;;;;;;;;;27.00;27.00;;;;;21.42;54.02;101063.78;5035720;28;45375;-71
2023/05/29 11:09:39;;;;;;;;;29.50;28.50;;;;;21.47;54.09;101081.28;5034373;28;45537;-77